Time;durP1;ratioP1;P1;durP2;ratioP2;P2;SDS_P1;SDS_P2;PMS_P1;PMS_P2;Temp;Humidity;BMP_temperature;BMP_pressure;BME280_temperature;BME280_humidity;BME280_pressure;Samples;Min_cycle;Max_cycle;Signal;HPM_P1;HPM_P2
2021/08/27 00:00:15;;;;;;;3.17;1.98;;;;;;;14.54;97.59;97615.50;4982427;28;20904;-59
2021/08/27 00:02:43;;;;;;;8.02;2.20;;;;;;;14.55;96.85;97612.78;4987054;28;20056;-59
2021/08/27 00:05:09;;;;;;;5.25;2.03;;;;;;;14.51;96.49;97608.66;4985868;28;20018;-60
2021/08/27 00:07:34;;;;;;;3.85;2.20;;;;;;;14.52;96.71;97614.75;4986317;28;20394;-61
2021/08/27 00:10:00;;;;;;;4.63;2.78;;;;;;;14.14;98.10;97612.75;4986765;28;20474;-60
2021/08/27 00:12:25;;;;;;;5.85;2.75;;;;;;;14.36;97.20;97614.88;4987046;28;20076;-59
2021/08/27 00:14:50;;;;;;;5.22;2.50;;;;;;;14.50;96.22;97611.38;4983275;28;20030;-59
2021/08/27 00:17:16;;;;;;;6.88;2.83;;;;;;;14.35;99.12;97607.94;4987889;28;20045;-62
2021/08/27 00:19:41;;;;;;;6.55;2.53;;;;;;;14.33;99.24;97615.91;4985659;28;20121;-59
2021/08/27 00:22:06;;;;;;;6.40;2.80;;;;;;;14.40;98.92;97611.97;4983252;28;20144;-61
2021/08/27 00:24:31;;;;;;;4.53;2.30;;;;;;;14.44;98.72;97609.97;4983246;28;20033;-61
2021/08/27 00:26:57;;;;;;;5.40;2.45;;;;;;;14.42;99.64;97614.50;4986005;28;20042;-61
2021/08/27 00:29:22;;;;;;;8.95;2.60;;;;;;;14.45;97.91;97612.50;4985755;28;20031;-60
2021/08/27 00:31:47;;;;;;;6.22;2.50;;;;;;;14.38;98.36;97611.22;5016717;28;20133;-59
2021/08/27 00:34:13;;;;;;;7.30;2.85;;;;;;;14.34;97.67;97609.72;4998714;28;20096;-61
2021/08/27 00:36:38;;;;;;;5.32;2.67;;;;;;;14.46;96.92;97600.22;4984245;28;20145;-58
2021/08/27 00:39:04;;;;;;;5.40;2.40;;;;;;;14.52;95.59;97609.50;4986931;28;20069;-60
2021/08/27 00:41:29;;;;;;;4.72;2.50;;;;;;;14.24;98.39;97604.22;4988901;28;20088;-60
2021/08/27 00:43:54;;;;;;;5.68;2.72;;;;;;;14.30;97.43;97600.38;4989992;28;20018;-59
2021/08/27 00:46:20;;;;;;;5.57;2.35;;;;;;;14.43;95.51;97601.28;4987426;28;20679;-61
2021/08/27 00:48:45;;;;;;;4.97;2.20;;;;;;;14.53;96.17;97601.53;4989155;28;20738;-59
2021/08/27 00:51:10;;;;;;;6.63;2.58;;;;;;;14.25;97.15;97602.44;4987393;28;20050;-61
2021/08/27 00:53:36;;;;;;;4.55;2.25;;;;;;;14.22;98.37;97602.63;4987668;28;20389;-58
2021/08/27 00:56:03;;;;;;;5.07;2.40;;;;;;;14.27;97.72;97600.56;4986921;28;20573;-58
2021/08/27 00:58:28;;;;;;;5.50;2.30;;;;;;;14.17;97.00;97607.28;4986719;28;20033;-59
2021/08/27 01:00:53;;;;;;;4.95;2.17;;;;;;;14.40;97.45;97605.88;4987775;28;20743;-61
2021/08/27 01:03:20;;;;;;;5.53;2.40;;;;;;;14.25;97.72;97605.06;4986820;28;20026;-60
2021/08/27 01:06:01;;;;;;;4.95;2.25;;;;;;;14.16;97.31;97613.50;4987684;28;20674;-60
2021/08/27 01:08:52;;;;;;;5.60;2.40;;;;;;;14.35;97.26;97606.16;4989473;28;20540;-62
2021/08/27 01:11:28;;;;;;;3.22;1.85;;;;;;;14.67;96.53;97608.56;4986890;28;20054;-62
2021/08/27 01:14:07;;;;;;;4.97;2.10;;;;;;;14.60;96.65;97607.28;4989805;28;20021;-62
2021/08/27 01:16:41;;;;;;;4.30;2.17;;;;;;;14.47;97.24;97617.66;4987820;28;20444;-61
2021/08/27 01:19:39;;;;;;;9.02;2.40;;;;;;;14.30;97.04;97610.00;4987081;28;20081;-64
2021/08/27 01:22:17;;;;;;;5.63;2.40;;;;;;;14.01;99.61;97613.50;4987503;28;20045;-61
2021/08/27 01:24:46;;;;;;;5.63;2.50;;;;;;;14.26;97.52;97612.84;4987605;28;20117;-62
2021/08/27 01:27:16;;;;;;;8.23;2.30;;;;;;;14.35;97.12;97610.56;4985552;28;20078;-62
2021/08/27 01:29:41;;;;;;;4.43;2.10;;;;;;;14.55;95.48;97604.91;4989038;28;20029;-62
2021/08/27 01:32:13;;;;;;;4.97;2.22;;;;;;;14.46;97.41;97610.72;4986925;28;20050;-60
2021/08/27 01:34:43;;;;;;;7.10;2.90;;;;;;;14.38;98.05;97613.00;4986632;28;20022;-61
2021/08/27 01:37:13;;;;;;;6.60;2.13;;;;;;;14.23;98.11;97615.63;4984741;28;20046;-62
2021/08/27 01:39:42;;;;;;;6.35;2.60;;;;;;;13.91;100.00;97614.16;4988808;28;20030;-63
2021/08/27 01:42:10;;;;;;;3.78;2.17;;;;;;;14.56;96.40;97617.09;4983259;28;20133;-61
2021/08/27 01:44:38;;;;;;;7.13;2.45;;;;;;;14.35;98.19;97616.66;4986572;28;20033;-60
2021/08/27 01:47:07;;;;;;;3.10;2.00;;;;;;;14.59;96.30;97616.94;4988035;28;20038;-63
2021/08/27 01:49:33;;;;;;;3.72;2.15;;;;;;;14.17;97.92;97620.41;4987344;28;20093;-61
2021/08/27 01:52:05;;;;;;;5.32;2.40;;;;;;;14.14;98.01;97615.38;4987524;28;20041;-62
2021/08/27 01:54:31;;;;;;;5.50;2.17;;;;;;;14.25;97.34;97623.41;4986145;28;20065;-63
2021/08/27 01:56:58;;;;;;;5.82;2.50;;;;;;;14.32;97.79;97608.97;4985751;28;20046;-60
2021/08/27 01:59:27;;;;;;;6.28;2.47;;;;;;;14.02;99.72;97607.31;4983883;28;20029;-62
2021/08/27 02:01:55;;;;;;;4.20;2.13;;;;;;;14.29;97.78;97598.66;4988028;28;20129;-60
2021/08/27 02:04:22;;;;;;;3.50;1.70;;;;;;;14.77;97.33;97612.28;4989740;28;20076;-58
2021/08/27 02:06:48;;;;;;;4.38;2.40;;;;;;;14.33;96.45;97604.56;4984733;28;20042;-60
2021/08/27 02:09:15;;;;;;;5.45;2.50;;;;;;;14.23;97.47;97612.19;4987775;28;20049;-63
2021/08/27 02:11:42;;;;;;;3.67;2.15;;;;;;;14.51;97.11;97605.19;4988385;28;20034;-61
2021/08/27 02:14:08;;;;;;;4.90;2.53;;;;;;;14.26;97.59;97609.34;4988682;28;20031;-60
2021/08/27 02:16:34;;;;;;;3.60;2.33;;;;;;;14.18;96.57;97604.59;4988632;28;20683;-61
2021/08/27 02:18:59;;;;;;;4.82;2.85;;;;;;;14.05;97.85;97617.59;4988538;28;20026;-61
2021/08/27 02:21:29;;;;;;;6.35;2.60;;;;;;;14.15;97.60;97614.41;4987474;28;20041;-62
2021/08/27 02:23:57;;;;;;;3.85;2.30;;;;;;;14.34;96.50;97607.09;4987804;28;20083;-62
2021/08/27 02:26:22;;;;;;;5.03;3.00;;;;;;;14.06;99.02;97608.81;4986414;28;20030;-62
2021/08/27 02:28:49;;;;;;;7.65;2.58;;;;;;;14.11;98.56;97616.38;4987351;28;20037;-62
2021/08/27 02:31:16;;;;;;;3.47;1.90;;;;;;;14.82;94.47;97609.38;4989433;28;20661;-61
2021/08/27 02:33:50;;;;;;;5.22;2.88;;;;;;;14.39;96.44;97607.66;4985787;28;20030;-62
2021/08/27 02:36:18;;;;;;;4.65;2.67;;;;;;;14.20;96.63;97615.81;4986343;28;20085;-61
2021/08/27 02:38:45;;;;;;;7.07;2.55;;;;;;;14.18;98.15;97616.88;4989479;28;20034;-62
2021/08/27 02:41:11;;;;;;;6.70;2.65;;;;;;;14.21;96.76;97609.66;4988063;28;20045;-60
2021/08/27 02:43:36;;;;;;;3.83;2.20;;;;;;;14.74;94.82;97615.13;4987179;28;20033;-63
2021/08/27 02:46:02;;;;;;;9.95;2.45;;;;;;;14.60;94.39;97617.78;4990584;28;20157;-60
2021/08/27 02:48:27;;;;;;;5.95;2.67;;;;;;;14.19;97.03;97605.41;4989208;28;20029;-63
2021/08/27 02:51:02;;;;;;;7.97;2.95;;;;;;;14.26;96.74;97617.22;4984912;28;20117;-61
2021/08/27 02:53:31;;;;;;;8.05;2.85;;;;;;;14.04;97.23;97621.19;4988283;28;20034;-64
2021/08/27 02:56:05;;;;;;;3.97;2.45;;;;;;;14.10;97.72;97629.59;4986125;28;20154;-61
2021/08/27 02:58:33;;;;;;;8.30;2.95;;;;;;;13.92;98.74;97629.78;4988810;28;20125;-64
2021/08/27 03:01:07;;;;;;;6.30;2.55;;;;;;;14.09;97.29;97628.75;4987341;28;20034;-61
2021/08/27 03:03:39;;;;;;;9.00;2.70;;;;;;;14.30;95.31;97631.84;4987931;28;20032;-61
2021/08/27 03:06:13;;;;;;;4.68;2.55;;;;;;;14.29;96.08;97630.16;4986861;28;20026;-60
2021/08/27 03:08:43;;;;;;;5.30;2.75;;;;;;;14.11;97.31;97636.53;4986964;28;21004;-61
2021/08/27 03:11:23;;;;;;;6.20;2.60;;;;;;;14.02;96.91;97635.31;4984815;28;20181;-61
2021/08/27 03:14:24;;;;;;;7.53;3.60;;;;;;;13.61;99.77;97636.84;4985948;28;20484;-62
2021/08/27 03:16:52;;;;;;;4.72;2.95;;;;;;;13.73;99.05;97642.28;4986669;28;20874;-61
2021/08/27 03:19:26;;;;;;;4.10;2.67;;;;;;;13.91;97.92;97630.72;4985009;28;20036;-64
2021/08/27 03:22:10;;;;;;;5.40;3.40;;;;;;;13.71;98.53;97638.94;4985045;28;20038;-63
2021/08/27 03:24:39;;;;;;;9.30;4.22;;;;;;;13.48;99.65;97641.13;4986626;28;20664;-60
2021/08/27 03:27:10;;;;;;;6.93;4.30;;;;;;;13.38;100.00;97647.84;4985382;28;20427;-63
2021/08/27 03:29:41;;;;;;;6.68;3.70;;;;;;;13.71;98.98;97637.19;4984096;28;20048;-61
2021/08/27 03:32:08;;;;;;;5.03;2.72;;;;;;;13.85;98.32;97625.84;4982594;28;20178;-60
2021/08/27 03:34:34;;;;;;;4.32;2.92;;;;;;;13.90;97.14;97636.06;4984072;28;20038;-62
2021/08/27 03:37:02;;;;;;;7.38;3.47;;;;;;;13.68;97.49;97632.94;4988560;28;20038;-63
2021/08/27 03:39:29;;;;;;;7.20;2.97;;;;;;;13.81;97.36;97629.59;4984862;28;20030;-61
2021/08/27 03:41:55;;;;;;;6.05;3.40;;;;;;;13.59;98.70;97636.09;4987025;28;20150;-62
2021/08/27 03:44:21;;;;;;;6.60;3.08;;;;;;;13.74;97.62;97628.28;4985371;28;20660;-60
2021/08/27 03:46:47;;;;;;;8.63;3.50;;;;;;;13.83;96.96;97628.56;4986715;28;20523;-61
2021/08/27 03:49:12;;;;;;;5.88;3.25;;;;;;;14.24;94.78;97633.06;4990133;28;20113;-63
2021/08/27 03:51:39;;;;;;;5.68;3.50;;;;;;;13.69;98.22;97637.25;4987437;28;20177;-62
2021/08/27 03:54:05;;;;;;;6.80;3.67;;;;;;;13.96;95.91;97627.81;4984967;28;20035;-60
2021/08/27 03:56:31;;;;;;;7.82;4.00;;;;;;;13.62;96.79;97635.94;4982974;28;20035;-63
2021/08/27 03:58:57;;;;;;;7.28;3.65;;;;;;;13.69;96.41;97633.78;4984047;28;20103;-62
2021/08/27 04:01:23;;;;;;;7.07;3.88;;;;;;;13.58;97.20;97626.56;4985991;28;20054;-63
2021/08/27 04:03:49;;;;;;;8.07;3.28;;;;;;;13.44;98.56;97624.75;4988689;28;20029;-63
2021/08/27 04:06:14;;;;;;;4.53;2.67;;;;;;;13.52;99.46;97626.09;4984660;28;20129;-61
2021/08/27 04:08:42;;;;;;;6.80;3.60;;;;;;;13.32;99.13;97629.88;4984170;28;20117;-61
2021/08/27 04:11:10;;;;;;;11.00;3.45;;;;;;;13.71;97.26;97620.59;4987126;28;20034;-61
2021/08/27 04:13:35;;;;;;;5.63;3.00;;;;;;;13.51;97.64;97627.88;4987824;28;20034;-63
2021/08/27 04:16:01;;;;;;;3.25;2.10;;;;;;;13.85;96.61;97625.84;4985699;28;20046;-61
2021/08/27 04:18:26;;;;;;;6.93;3.50;;;;;;;13.43;97.45;97630.06;4989146;28;20080;-63
2021/08/27 04:20:52;;;;;;;7.78;3.53;;;;;;;13.25;97.23;97627.56;4987858;28;20038;-61
2021/08/27 04:23:18;;;;;;;4.57;2.83;;;;;;;13.25;98.67;97635.44;4988588;28;20041;-63
2021/08/27 04:25:43;;;;;;;6.70;3.00;;;;;;;13.69;95.11;97637.25;4987944;28;20030;-62
2021/08/27 04:28:09;;;;;;;6.95;3.40;;;;;;;13.30;96.64;97641.25;4987520;28;20110;-60
2021/08/27 04:30:35;;;;;;;5.55;3.17;;;;;;;13.23;97.48;97633.81;4988434;28;20456;-61
2021/08/27 04:33:01;;;;;;;5.45;3.20;;;;;;;13.37;96.77;97635.69;4986475;28;20030;-61
2021/08/27 04:35:27;;;;;;;6.80;3.45;;;;;;;12.79;99.30;97647.66;4988247;28;20507;-60
2021/08/27 04:37:53;;;;;;;7.80;3.60;;;;;;;12.99;98.37;97641.31;4990045;28;20037;-59
2021/08/27 04:40:19;;;;;;;5.00;2.92;;;;;;;13.12;98.10;97652.75;4989466;28;20029;-62
2021/08/27 04:42:44;;;;;;;5.95;3.53;;;;;;;13.11;98.33;97645.84;4987769;28;20581;-62
2021/08/27 04:45:10;;;;;;;5.80;2.50;;;;;;;13.41;96.43;97655.53;4988862;28;20185;-60
2021/08/27 04:47:35;;;;;;;5.93;3.40;;;;;;;13.07;97.53;97652.19;4988702;28;20460;-60
2021/08/27 04:50:01;;;;;;;5.68;3.22;;;;;;;12.99;98.54;97657.00;4985829;28;20037;-60
2021/08/27 04:52:26;;;;;;;5.95;3.05;;;;;;;13.71;94.98;97659.91;4986955;28;20505;-61
2021/08/27 04:54:51;;;;;;;8.23;3.33;;;;;;;13.20;96.43;97647.09;4987953;28;20093;-60
2021/08/27 04:57:17;;;;;;;7.55;3.00;;;;;;;13.10;98.40;97655.50;4988285;28;20117;-60
2021/08/27 04:59:46;;;;;;;4.82;3.28;;;;;;;13.11;97.15;97665.00;4988844;28;20029;-59
2021/08/27 05:02:12;;;;;;;12.75;4.60;;;;;;;12.67;99.11;97657.88;4987120;28;20038;-59
2021/08/27 05:04:38;;;;;;;6.90;4.18;;;;;;;13.13;97.15;97657.06;4993294;28;20416;-63
2021/08/27 05:07:03;;;;;;;8.10;4.93;;;;;;;12.74;99.63;97663.63;4990382;28;20745;-62
2021/08/27 05:09:29;;;;;;;10.77;5.03;;;;;;;12.71;100.00;97663.78;4990175;28;20038;-59
2021/08/27 05:11:54;;;;;;;6.32;4.30;;;;;;;12.85;98.85;97665.66;4989629;28;20476;-60
2021/08/27 05:14:20;;;;;;;7.03;4.22;;;;;;;12.95;98.57;97671.22;4990506;28;20064;-61
2021/08/27 05:16:45;;;;;;;8.88;4.95;;;;;;;12.69;99.70;97665.63;4990896;28;20042;-62
2021/08/27 05:19:10;;;;;;;5.68;3.97;;;;;;;12.85;98.44;97669.09;4989993;28;20041;-60
2021/08/27 05:21:37;;;;;;;11.02;5.22;;;;;;;12.85;98.63;97671.72;4989849;28;20129;-60
2021/08/27 05:24:03;;;;;;;10.27;5.15;;;;;;;13.00;98.10;97674.41;4988135;28;20022;-64
2021/08/27 05:26:29;;;;;;;7.90;4.93;;;;;;;13.15;97.47;97667.47;4989940;28;20065;-61
2021/08/27 05:28:55;;;;;;;6.43;3.60;;;;;;;13.73;95.83;97668.50;4988818;28;20030;-64
2021/08/27 05:31:23;;;;;;;8.07;3.55;;;;;;;13.73;96.30;97674.63;4990690;28;20755;-62
2021/08/27 05:33:48;;;;;;;6.38;3.95;;;;;;;13.54;98.07;97677.44;4990569;28;20065;-63
2021/08/27 05:36:13;;;;;;;5.28;3.60;;;;;;;13.72;95.65;97672.91;4991067;28;20030;-62
2021/08/27 05:38:39;;;;;;;10.93;3.88;;;;;;;13.84;95.74;97676.56;4988422;28;20030;-60
2021/08/27 05:41:05;;;;;;;9.98;4.97;;;;;;;13.63;96.37;97671.66;4991728;28;20097;-61
2021/08/27 05:43:31;;;;;;;9.13;4.53;;;;;;;13.65;96.80;97680.28;4989073;28;20021;-61
2021/08/27 05:45:56;;;;;;;10.23;4.28;;;;;;;13.72;98.51;97693.06;4987292;28;20397;-61
2021/08/27 05:48:21;;;;;;;12.35;4.70;;;;;;;13.71;98.83;97681.72;4988190;28;20030;-64
2021/08/27 05:50:47;;;;;;;13.45;7.32;;;;;;;14.14;96.69;97683.56;4989327;28;20779;-60
2021/08/27 05:53:14;;;;;;;16.00;9.23;;;;;;;13.65;95.94;97688.16;4987895;28;20114;-63
2021/08/27 05:55:42;;;;;;;13.52;8.48;;;;;;;13.89;95.86;97685.00;4988652;28;20141;-61
2021/08/27 05:58:07;;;;;;;9.18;5.80;;;;;;;13.94;95.11;97682.13;4990071;28;20028;-63
2021/08/27 06:00:36;;;;;;;10.57;6.38;;;;;;;13.90;94.90;97691.97;4989912;28;20042;-61
2021/08/27 06:03:01;;;;;;;10.30;5.25;;;;;;;13.86;94.72;97685.22;4989652;28;20030;-62
2021/08/27 06:05:27;;;;;;;9.98;5.30;;;;;;;13.88;96.06;97693.84;4990643;28;20039;-62
2021/08/27 06:07:53;;;;;;;10.57;4.15;;;;;;;14.15;95.39;97680.00;4990331;28;20132;-60
2021/08/27 06:10:19;;;;;;;6.70;4.22;;;;;;;14.04;95.19;97691.13;4990138;28;20033;-60
2021/08/27 06:12:45;;;;;;;6.60;4.18;;;;;;;14.20;93.23;97685.81;4989829;28;20105;-61
2021/08/27 06:15:14;;;;;;;7.15;3.65;;;;;;;14.18;94.35;97685.06;5001498;28;20041;-61
2021/08/27 06:17:40;;;;;;;7.30;3.97;;;;;;;14.54;92.58;97684.59;4990637;28;20964;-60
2021/08/27 06:20:06;;;;;;;8.32;3.72;;;;;;;14.74;91.61;97688.63;4989777;28;20026;-62
2021/08/27 06:22:32;;;;;;;6.32;3.55;;;;;;;14.77;92.50;97685.78;4992220;28;20073;-61
2021/08/27 06:24:58;;;;;;;6.25;3.30;;;;;;;14.84;91.16;97687.09;4988413;28;20065;-60
2021/08/27 06:27:23;;;;;;;5.70;3.85;;;;;;;14.72;92.50;97684.38;4988582;28;20042;-60
2021/08/27 06:29:49;;;;;;;5.82;3.28;;;;;;;14.55;92.85;97690.66;4988421;28;20117;-61
2021/08/27 06:32:15;;;;;;;5.20;3.33;;;;;;;14.70;92.02;97687.09;4990586;28;20467;-64
2021/08/27 06:34:43;;;;;;;6.78;3.28;;;;;;;14.82;90.13;97685.50;4986718;28;20034;-60
2021/08/27 06:37:08;;;;;;;6.43;3.28;;;;;;;14.62;91.71;97690.22;4988504;28;20396;-63
2021/08/27 06:39:33;;;;;;;8.48;3.22;;;;;;;15.08;89.33;97691.72;4990269;28;20563;-62
2021/08/27 06:41:59;;;;;;;6.03;3.33;;;;;;;15.23;87.86;97690.72;4988797;28;20729;-63
2021/08/27 06:44:24;;;;;;;7.93;3.60;;;;;;;15.42;86.01;97694.81;4989448;28;20030;-61
2021/08/27 06:46:49;;;;;;;5.50;3.30;;;;;;;14.81;89.60;97689.94;4987920;28;20049;-62
2021/08/27 06:49:17;;;;;;;9.00;4.35;;;;;;;15.36;86.83;97695.19;4999905;28;20669;-63
2021/08/27 06:51:43;;;;;;;6.55;3.50;;;;;;;15.23;88.06;97693.34;4987399;28;20046;-59
2021/08/27 06:54:08;;;;;;;7.32;3.10;;;;;;;15.55;86.63;97693.03;4990737;28;20040;-60
2021/08/27 06:56:34;;;;;;;7.20;3.55;;;;;;;15.55;84.95;97700.06;4988544;28;20057;-61
2021/08/27 06:58:59;;;;;;;5.55;3.45;;;;;;;15.58;86.74;97698.06;4988610;28;20062;-62
2021/08/27 07:01:25;;;;;;;6.72;3.47;;;;;;;15.35;86.39;97704.03;4992423;28;20041;-61
2021/08/27 07:03:52;;;;;;;7.75;3.53;;;;;;;15.75;85.57;97702.28;4987375;28;20022;-60
2021/08/27 07:06:17;;;;;;;4.53;3.20;;;;;;;15.68;85.68;97700.97;4986070;28;20045;-63
2021/08/27 07:08:43;;;;;;;7.45;3.35;;;;;;;15.64;84.43;97702.13;4987871;28;20029;-61
2021/08/27 07:11:08;;;;;;;4.97;2.95;;;;;;;15.57;84.33;97708.72;4987920;28;20050;-62
2021/08/27 07:13:33;;;;;;;7.72;3.10;;;;;;;15.62;85.26;97709.22;4986197;28;20097;-62
2021/08/27 07:16:01;;;;;;;5.03;3.10;;;;;;;15.43;84.27;97706.97;4989159;28;20045;-62
2021/08/27 07:18:27;;;;;;;4.78;3.17;;;;;;;15.92;82.52;97708.19;4988354;28;20673;-62
2021/08/27 07:20:54;;;;;;;6.75;2.88;;;;;;;15.72;83.29;97712.13;4990594;28;20261;-62
2021/08/27 07:23:19;;;;;;;4.35;3.05;;;;;;;15.78;83.79;97717.81;4986691;28;20026;-60
2021/08/27 07:25:45;;;;;;;7.22;3.13;;;;;;;15.67;84.29;97717.66;4986998;28;20034;-63
2021/08/27 07:28:11;;;;;;;6.68;3.22;;;;;;;15.49;85.00;97724.97;4988690;28;20121;-60
2021/08/27 07:30:36;;;;;;;5.28;3.03;;;;;;;15.91;83.63;97723.09;4988705;28;21081;-61
2021/08/27 07:33:03;;;;;;;5.75;2.90;;;;;;;15.57;85.49;97713.97;4988654;28;20768;-61
2021/08/27 07:35:28;;;;;;;6.25;2.80;;;;;;;15.40;83.86;97720.31;4989370;28;20054;-63
2021/08/27 07:37:54;;;;;;;4.50;2.10;;;;;;;15.70;84.48;97720.09;4986546;28;20030;-64
2021/08/27 07:40:20;;;;;;;8.07;3.30;;;;;;;15.59;83.73;97723.44;4985733;28;20137;-62
2021/08/27 07:42:45;;;;;;;5.50;3.15;;;;;;;15.41;85.06;97729.91;4989144;28;20129;-60
2021/08/27 07:45:13;;;;;;;5.72;3.50;;;;;;;15.34;86.09;97729.44;4989460;28;20120;-62
2021/08/27 07:47:38;;;;;;;5.72;2.35;;;;;;;16.12;83.06;97730.50;4991991;28;20029;-60
2021/08/27 07:50:05;;;;;;;4.90;3.33;;;;;;;15.58;85.30;97729.63;4992640;28;20039;-60
2021/08/27 07:52:30;;;;;;;9.05;3.92;;;;;;;15.45;84.59;97728.75;4990819;28;20097;-62
2021/08/27 07:54:56;;;;;;;10.38;4.30;;;;;;;15.39;85.85;97721.28;4993110;28;20030;-61
2021/08/27 07:57:21;;;;;;;8.07;4.63;;;;;;;15.40;85.04;97733.44;4993869;28;20042;-61
2021/08/27 07:59:46;;;;;;;8.38;4.60;;;;;;;15.23;88.79;97732.75;4992247;28;20018;-62
2021/08/27 08:02:14;;;;;;;7.72;3.95;;;;;;;16.11;85.28;97734.09;4990887;28;20038;-61
2021/08/27 08:04:39;;;;;;;9.93;4.35;;;;;;;15.58;87.85;97731.41;4991368;28;20110;-60
2021/08/27 08:07:05;;;;;;;8.57;4.95;;;;;;;15.57;86.54;97738.47;4991725;28;20124;-61
2021/08/27 08:09:30;;;;;;;8.52;4.00;;;;;;;15.83;88.18;97743.81;4991106;28;20496;-63
2021/08/27 08:11:55;;;;;;;6.97;3.58;;;;;;;15.95;87.30;97745.66;4991799;28;20073;-63
2021/08/27 08:14:21;;;;;;;8.98;3.72;;;;;;;15.87;87.09;97745.31;4992399;28;20034;-61
2021/08/27 08:16:46;;;;;;;9.02;3.80;;;;;;;15.51;85.42;97749.41;4994769;28;20042;-61
2021/08/27 08:19:12;;;;;;;8.35;3.72;;;;;;;15.34;87.97;97752.25;4991175;28;20042;-60
2021/08/27 08:21:38;;;;;;;6.15;3.08;;;;;;;15.56;87.17;97752.53;4991703;28;20037;-60
2021/08/27 08:24:04;;;;;;;4.35;3.08;;;;;;;15.19;88.71;97752.28;4991468;28;20038;-62
2021/08/27 08:26:30;;;;;;;9.18;3.90;;;;;;;15.48;86.37;97752.22;4992699;28;20069;-61
2021/08/27 08:28:56;;;;;;;5.10;2.67;;;;;;;15.77;85.66;97760.03;4992754;28;20026;-61
2021/08/27 08:31:21;;;;;;;7.03;3.08;;;;;;;15.50;85.11;97755.59;4989472;28;20065;-63
2021/08/27 08:33:52;;;;;;;8.05;3.55;;;;;;;15.26;86.57;97757.16;4990491;28;20030;-63
2021/08/27 08:36:18;;;;;;;6.13;3.60;;;;;;;15.23;89.30;97751.16;4990570;28;20045;-60
2021/08/27 08:38:45;;;;;;;6.28;3.50;;;;;;;15.33;88.21;97753.19;4990121;28;20429;-60
2021/08/27 08:41:11;;;;;;;8.65;3.85;;;;;;;15.58;88.90;97748.03;4990615;28;20045;-63
2021/08/27 08:43:36;;;;;;;6.30;3.50;;;;;;;15.45;88.21;97751.56;4995953;28;20061;-62
2021/08/27 08:46:02;;;;;;;6.47;3.72;;;;;;;15.87;87.38;97744.47;4992704;28;20035;-62
2021/08/27 08:48:28;;;;;;;7.43;3.95;;;;;;;15.87;87.95;97749.72;4993348;28;20026;-62
2021/08/27 08:50:54;;;;;;;10.70;3.33;;;;;;;16.91;83.78;97747.88;4992131;28;20065;-61
2021/08/27 08:53:22;;;;;;;9.63;3.75;;;;;;;16.57;83.42;97746.72;4990972;28;20026;-61
2021/08/27 08:55:51;;;;;;;4.35;2.80;;;;;;;17.42;82.17;97749.47;4989154;28;20096;-61
2021/08/27 08:58:17;;;;;;;10.15;3.25;;;;;;;18.34;77.05;97743.59;4993635;28;20041;-60
2021/08/27 09:00:43;;;;;;;11.02;2.97;;;;;;;17.78;77.47;97739.81;4997803;28;20041;-61
2021/08/27 09:03:08;;;;;;;6.55;2.90;;;;;;;18.17;75.21;97740.44;4989836;28;20041;-60
2021/08/27 09:05:34;;;;;;;4.65;2.55;;;;;;;18.65;72.64;97740.25;4991024;28;20035;-61
2021/08/27 09:07:59;;;;;;;7.68;3.17;;;;;;;19.87;69.94;97732.31;4990086;28;20072;-62
2021/08/27 09:10:27;;;;;;;5.95;2.50;;;;;;;20.93;69.17;97742.69;4990086;28;20041;-62
2021/08/27 09:13:05;;;;;;;5.40;2.47;;;;;;;20.12;68.87;97734.59;4992195;28;20516;-62
2021/08/27 09:15:31;;;;;;;6.43;2.70;;;;;;;19.83;67.54;97723.81;4989674;28;20110;-62
2021/08/27 09:17:56;;;;;;;5.47;2.70;;;;;;;19.66;66.00;97725.19;4991324;28;20073;-62
2021/08/27 09:20:25;;;;;;;7.30;2.70;;;;;;;18.44;71.29;97726.09;4988615;28;20049;-61
2021/08/27 09:22:58;;;;;;;8.85;2.80;;;;;;;17.49;72.47;97724.34;4990989;28;20065;-61
2021/08/27 09:25:35;;;;;;;6.97;2.90;;;;;;;17.73;72.79;97726.97;4991916;28;20038;-61
2021/08/27 09:28:11;;;;;;;4.70;2.53;;;;;;;17.55;74.35;97733.59;4989832;28;20022;-63
2021/08/27 09:30:54;;;;;;;5.07;2.97;;;;;;;17.02;76.70;97741.84;4989621;28;20125;-62
2021/08/27 09:33:29;;;;;;;7.75;3.38;;;;;;;17.43;78.17;97750.34;4991736;28;20053;-60
2021/08/27 09:36:01;;;;;;;7.25;3.35;;;;;;;17.30;79.32;97745.94;4988740;28;20046;-60
2021/08/27 09:38:28;;;;;;;;;;;;;;;16.56;83.48;97745.88;4991392;28;20118;-60
2021/08/27 09:41:05;;;;;;;9.35;4.13;;;;;;;16.21;86.26;97750.94;4988856;28;19917;-60
2021/08/27 09:43:51;;;;;;;7.78;4.22;;;;;;;16.21;86.38;97739.56;4991978;28;20123;-62
2021/08/27 09:46:44;;;;;;;7.78;4.05;;;;;;;16.41;85.74;97751.34;4990546;28;20041;-61
2021/08/27 09:49:36;;;;;;;9.40;4.03;;;;;;;16.43;84.93;97746.81;4988553;28;20134;-62
2021/08/27 09:52:09;;;;;;;7.93;3.90;;;;;;;16.61;86.74;97739.44;4990216;28;20041;-61
2021/08/27 09:54:38;;;;;;;5.22;2.90;;;;;;;17.36;79.57;97739.38;4989057;28;20284;-63
2021/08/27 09:57:05;;;;;;;5.47;3.40;;;;;;;18.72;80.37;97739.78;4988270;28;20032;-60
2021/08/27 09:59:35;;;;;;;11.32;2.97;;;;;;;19.71;72.99;97733.59;4989441;28;20075;-62
2021/08/27 10:02:02;;;;;;;4.78;2.80;;;;;;;20.08;73.43;97733.19;4988814;28;20112;-60
2021/08/27 10:04:29;;;;;;;4.90;2.20;;;;;;;19.50;73.24;97724.75;4989283;28;20033;-60
2021/08/27 10:06:54;;;;;;;4.55;2.35;;;;;;;18.63;72.61;97726.31;4993403;28;20042;-60
2021/08/27 10:09:19;;;;;;;6.30;2.13;;;;;;;18.39;72.67;97730.88;4988997;28;20033;-60
2021/08/27 10:11:47;;;;;;;5.75;2.78;;;;;;;18.63;71.41;97721.03;4991125;28;20031;-61
2021/08/27 10:14:13;;;;;;;5.15;2.30;;;;;;;18.24;72.64;97720.53;4990295;28;20030;-60
2021/08/27 10:16:41;;;;;;;4.88;2.50;;;;;;;17.45;72.39;97719.44;5004365;28;20038;-60
2021/08/27 10:19:06;;;;;;;6.82;2.20;;;;;;;17.63;75.55;97719.88;4989972;28;20022;-59
2021/08/27 10:21:32;;;;;;;3.95;2.20;;;;;;;17.87;73.73;97722.50;4991032;28;20038;-59
2021/08/27 10:23:58;;;;;;;4.45;2.00;;;;;;;17.87;74.09;97719.84;5009539;28;20497;-59
2021/08/27 10:26:26;;;;;;;4.88;2.25;;;;;;;18.36;70.73;97723.19;4990502;28;20455;-62
2021/08/27 10:28:53;;;;;;;5.65;2.20;;;;;;;18.59;73.68;97718.75;4990134;28;20030;-61
2021/08/27 10:31:39;;;;;;;5.30;2.20;;;;;;;19.32;69.96;97722.66;4988384;28;20748;-61
2021/08/27 10:34:05;;;;;;;3.38;1.70;;;;;;;19.74;68.21;97717.50;4989823;28;20038;-60
2021/08/27 10:36:30;;;;;;;5.85;1.92;;;;;;;19.73;68.02;97709.69;4989580;28;20038;-60
2021/08/27 10:38:57;;;;;;;4.27;2.00;;;;;;;19.54;67.01;97712.97;4987348;28;20029;-59
2021/08/27 10:41:30;;;;;;;5.75;2.42;;;;;;;19.36;67.89;97718.78;4987257;28;20274;-62
2021/08/27 10:43:55;;;;;;;3.65;2.22;;;;;;;19.23;67.19;97712.84;4988693;28;20113;-59
2021/08/27 10:46:22;;;;;;;4.28;2.00;;;;;;;18.80;68.27;97716.22;4991028;28;20228;-61
2021/08/27 10:48:49;;;;;;;4.85;1.80;;;;;;;18.73;67.82;97715.03;4988260;28;20511;-62
2021/08/27 10:51:36;;;;;;;4.00;2.00;;;;;;;18.23;70.28;97724.16;4987356;28;20042;-60
2021/08/27 10:54:03;;;;;;;3.53;1.80;;;;;;;18.75;69.76;97724.53;4987279;28;20029;-61
2021/08/27 10:56:44;;;;;;;3.42;1.77;;;;;;;19.20;68.71;97715.72;4989933;28;20141;-63
2021/08/27 10:59:11;;;;;;;3.72;2.00;;;;;;;18.81;69.38;97712.66;4987892;28;20038;-61
2021/08/27 11:01:59;;;;;;;5.43;1.90;;;;;;;18.55;68.07;97712.88;4989793;28;20046;-61
2021/08/27 11:04:29;;;;;;;3.42;1.80;;;;;;;18.39;69.28;97717.66;4988539;28;20509;-61
2021/08/27 11:07:05;;;;;;;3.70;2.00;;;;;;;18.70;70.81;97716.13;4989422;28;20046;-62
2021/08/27 11:09:35;;;;;;;3.65;1.70;;;;;;;18.99;69.32;97721.78;4988403;28;20021;-62
2021/08/27 11:12:09;;;;;;;4.07;1.80;;;;;;;19.02;69.64;97716.25;4987341;28;20500;-60
2021/08/27 11:14:36;;;;;;;3.42;2.05;;;;;;;19.39;70.28;97723.84;4990524;28;20042;-63
2021/08/27 11:17:05;;;;;;;4.50;2.05;;;;;;;18.74;72.35;97727.28;4986794;28;20120;-61
2021/08/27 11:19:40;;;;;;;3.53;1.80;;;;;;;18.16;71.16;97730.00;4988008;28;20949;-63
2021/08/27 11:22:11;;;;;;;3.97;1.63;;;;;;;19.03;69.52;97739.06;4987551;28;20478;-59
2021/08/27 11:25:02;;;;;;;2.60;1.73;;;;;;;18.62;72.80;97740.50;4987093;28;20030;-60
2021/08/27 11:27:28;;;;;;;3.78;1.73;;;;;;;18.53;72.64;97737.72;4989043;28;20121;-60
2021/08/27 11:29:56;;;;;;;3.75;1.90;;;;;;;18.06;74.65;97743.06;4989205;28;20027;-62
2021/08/27 11:32:27;;;;;;;4.35;1.60;;;;;;;18.50;73.91;97749.38;4986637;28;20105;-59
2021/08/27 11:34:54;;;;;;;5.45;1.77;;;;;;;18.71;70.37;97732.78;4990046;28;20432;-59
2021/08/27 11:37:24;;;;;;;4.18;1.70;;;;;;;19.48;68.99;97734.63;4987983;28;20076;-61